createdAt,value
2024-03-12T00:01:57.450Z,64.03
2024-03-12T00:04:24.514Z,60.53
2024-03-12T00:06:53.220Z,66.57
2024-03-12T00:09:20.375Z,64.10
2024-03-12T00:11:48.519Z,56.45
2024-03-12T00:14:20.671Z,69.00
2024-03-12T00:16:47.675Z,71.95
2024-03-12T00:19:14.833Z,71.45
2024-03-12T00:21:41.996Z,69.65
2024-03-12T00:24:10.483Z,64.90
2024-03-12T00:26:38.902Z,67.53
2024-03-12T00:29:05.960Z,70.75
2024-03-12T00:34:11.932Z,70.75
2024-03-12T00:36:42.096Z,78.20
2024-03-12T00:39:11.509Z,83.63
2024-03-12T00:41:38.521Z,72.55
2024-03-12T00:44:06.930Z,75.85
2024-03-12T00:46:34.054Z,76.13
2024-03-12T00:49:01.147Z,84.90
2024-03-12T00:51:30.566Z,74.90
2024-03-12T00:53:57.893Z,80.10
2024-03-12T00:56:25.217Z,86.60
2024-03-12T00:58:53.546Z,77.78
2024-03-12T01:01:21.565Z,90.25
2024-03-12T01:03:48.778Z,89.05
2024-03-12T01:06:15.810Z,84.38
2024-03-12T01:08:43.969Z,80.70
2024-03-12T01:11:11.141Z,85.60
2024-03-12T01:13:40.580Z,81.80
2024-03-12T01:16:09.269Z,82.80
2024-03-12T01:18:37.044Z,94.20
2024-03-12T01:21:07.198Z,85.57
2024-03-12T01:23:34.209Z,87.40
2024-03-12T01:26:01.415Z,82.40
2024-03-12T01:28:28.386Z,82.05
2024-03-12T01:30:55.699Z,91.75
2024-03-12T01:33:22.843Z,86.78
2024-03-12T01:36:02.247Z,84.65
2024-03-12T01:38:29.262Z,83.40
2024-03-12T01:40:56.343Z,92.05
2024-03-12T01:46:08.699Z,92.55
2024-03-12T01:48:35.925Z,87.95
2024-03-12T01:51:03.089Z,95.20
2024-03-12T01:53:30.380Z,100.00
2024-03-12T01:58:30.030Z,94.22
2024-03-12T02:00:59.051Z,101.03
2024-03-12T02:03:26.179Z,87.90
2024-03-12T02:05:53.367Z,93.45
2024-03-12T02:08:20.541Z,89.45
2024-03-12T02:10:47.613Z,101.18
2024-03-12T02:13:14.813Z,89.15
2024-03-12T02:15:43.388Z,106.00
2024-03-12T02:18:10.853Z,95.80
2024-03-12T02:20:44.385Z,97.88
2024-03-12T02:23:13.137Z,94.13
2024-03-12T02:25:40.239Z,88.35
2024-03-12T02:28:07.571Z,98.55
2024-03-12T02:30:34.925Z,120.78
2024-03-12T02:33:04.060Z,96.00
2024-03-12T02:35:31.278Z,100.88
2024-03-12T02:37:58.273Z,106.60
2024-03-12T02:40:25.450Z,93.93
2024-03-12T02:42:52.527Z,104.05
2024-03-12T02:45:22.176Z,115.45
2024-03-12T02:47:49.652Z,110.22
2024-03-12T02:50:17.651Z,106.63
2024-03-12T02:52:46.591Z,102.00
2024-03-12T02:55:14.369Z,93.13
2024-03-12T03:00:25.748Z,122.13
2024-03-12T03:02:56.048Z,119.63
2024-03-12T03:05:23.209Z,111.13
2024-03-12T03:10:27.289Z,101.57
2024-03-12T03:12:54.339Z,115.20
2024-03-12T03:15:22.050Z,114.57
2024-03-12T03:17:50.072Z,107.18
2024-03-12T03:20:17.361Z,110.85
2024-03-12T03:22:44.699Z,106.20
2024-03-12T03:25:15.374Z,109.60
2024-03-12T03:27:43.238Z,107.43
2024-03-12T03:30:20.386Z,114.55
2024-03-12T03:32:48.718Z,115.28
2024-03-12T03:35:15.879Z,107.80
2024-03-12T03:37:44.117Z,108.00
2024-03-12T03:40:15.556Z,105.85
2024-03-12T03:42:43.317Z,98.70
2024-03-12T03:45:14.141Z,109.45
2024-03-12T03:50:24.668Z,88.68
2024-03-12T03:52:54.067Z,94.07
2024-03-12T03:55:23.277Z,102.05
2024-03-12T03:57:53.937Z,89.28
2024-03-12T04:00:25.344Z,98.57
2024-03-12T04:02:52.750Z,90.32
2024-03-12T04:05:19.975Z,91.75
2024-03-12T04:07:47.032Z,103.60
2024-03-12T04:10:16.022Z,103.00
2024-03-12T04:12:46.066Z,95.25
2024-03-12T04:15:16.916Z,99.68
2024-03-12T04:17:45.692Z,91.72
2024-03-12T04:20:18.954Z,86.50
2024-03-12T04:22:46.455Z,92.75
2024-03-12T04:25:14.658Z,95.57
2024-03-12T04:27:42.282Z,93.28
2024-03-12T04:30:11.576Z,103.65
2024-03-12T04:32:39.701Z,95.30
2024-03-12T04:35:09.980Z,84.85
2024-03-12T04:37:38.148Z,82.43
2024-03-12T04:40:09.702Z,84.35
2024-03-12T04:42:38.498Z,81.43
2024-03-12T04:45:09.368Z,81.97
2024-03-12T04:47:38.895Z,79.45
2024-03-12T04:50:06.440Z,70.00
2024-03-12T04:52:35.106Z,89.65
2024-03-12T04:55:08.056Z,76.30
2024-03-12T04:57:37.302Z,75.90
2024-03-12T05:00:15.551Z,82.40
2024-03-12T05:02:43.875Z,70.30
2024-03-12T05:05:22.079Z,69.60
2024-03-12T05:07:49.587Z,78.82
2024-03-12T05:10:17.750Z,78.40
2024-03-12T05:12:45.342Z,75.68
2024-03-12T05:15:12.362Z,84.00
2024-03-12T05:17:43.810Z,77.78
2024-03-12T05:20:11.604Z,83.13
2024-03-12T05:22:38.657Z,67.30
2024-03-12T05:25:10.550Z,74.82
2024-03-12T05:27:44.757Z,67.20
2024-03-12T05:30:18.146Z,71.72
2024-03-12T05:32:55.560Z,74.18
2024-03-12T05:35:24.192Z,75.53
2024-03-12T05:38:11.952Z,73.50
2024-03-12T05:40:58.728Z,78.05
2024-03-12T05:43:44.361Z,63.00
2024-03-12T05:46:30.033Z,81.40
2024-03-12T05:48:57.051Z,78.68
2024-03-12T05:51:24.194Z,77.72
2024-03-12T05:53:51.483Z,68.43
2024-03-12T05:56:19.577Z,69.80
2024-03-12T05:58:47.455Z,74.10
2024-03-12T06:01:15.030Z,77.05
2024-03-12T06:03:42.306Z,66.03
2024-03-12T06:06:09.442Z,75.30
2024-03-12T06:08:36.986Z,77.00
2024-03-12T06:11:04.387Z,70.35
2024-03-12T06:13:32.035Z,73.25
2024-03-12T06:15:59.328Z,76.65
2024-03-12T06:18:29.746Z,71.93
2024-03-12T06:20:57.004Z,75.18
2024-03-12T06:23:24.767Z,87.43
2024-03-12T06:25:52.064Z,76.40
2024-03-12T06:28:22.952Z,75.53
2024-03-12T06:33:29.808Z,87.93
2024-03-12T06:35:57.183Z,77.95
2024-03-12T06:38:27.781Z,80.30
2024-03-12T06:40:57.980Z,83.50
2024-03-12T06:43:25.023Z,95.07
2024-03-12T06:45:53.702Z,78.72
2024-03-12T06:48:21.292Z,84.60
2024-03-12T06:50:48.350Z,81.65
2024-03-12T06:53:16.195Z,78.38
2024-03-12T06:55:47.352Z,75.00
2024-03-12T06:58:22.642Z,79.95
2024-03-12T07:00:51.879Z,69.88
2024-03-12T07:03:23.177Z,92.38
2024-03-12T07:05:50.796Z,86.47
2024-03-12T07:08:19.303Z,88.88
2024-03-12T07:10:46.986Z,99.78
2024-03-12T07:13:14.622Z,77.35
2024-03-12T07:15:46.550Z,84.18
2024-03-12T07:18:17.086Z,93.53
2024-03-12T07:20:45.478Z,100.07
2024-03-12T07:23:15.258Z,83.88
2024-03-12T07:25:44.519Z,101.22
2024-03-12T07:28:14.093Z,101.78
2024-03-12T07:30:41.484Z,103.43
2024-03-12T07:33:08.621Z,104.07
2024-03-12T07:35:36.147Z,104.88
2024-03-12T07:38:04.918Z,105.80
2024-03-12T07:40:33.351Z,109.70
2024-03-12T07:43:00.978Z,97.65
2024-03-12T07:45:29.190Z,113.63
2024-03-12T07:47:57.543Z,111.93
2024-03-12T07:50:29.830Z,101.32
2024-03-12T07:53:00.001Z,105.10
2024-03-12T07:55:27.108Z,116.78
2024-03-12T07:57:54.225Z,112.45
2024-03-12T08:00:21.364Z,106.60
2024-03-12T08:02:48.493Z,112.85
2024-03-12T08:05:15.619Z,103.65
2024-03-12T08:07:45.643Z,110.85
2024-03-12T08:10:13.741Z,99.63
2024-03-12T08:12:41.397Z,105.68
2024-03-12T08:15:10.166Z,105.07
2024-03-12T08:17:40.678Z,122.93
2024-03-12T08:20:12.275Z,124.93
2024-03-12T08:22:39.842Z,112.47
2024-03-12T08:25:10.911Z,113.72
2024-03-12T08:27:40.833Z,124.97
2024-03-12T08:30:11.483Z,132.38
2024-03-12T08:32:38.875Z,133.15
2024-03-12T08:35:06.667Z,141.57
2024-03-12T08:37:38.830Z,128.60
2024-03-12T08:40:08.917Z,124.68
2024-03-12T08:42:47.452Z,116.25
2024-03-12T08:45:24.709Z,132.25
2024-03-12T08:47:52.231Z,120.45
2024-03-12T08:50:19.583Z,113.57
2024-03-12T08:52:47.359Z,131.73
2024-03-12T08:55:17.896Z,133.68
2024-03-12T08:57:45.151Z,142.23
2024-03-12T09:00:13.010Z,138.73
2024-03-12T09:02:43.160Z,149.88
2024-03-12T09:05:10.627Z,145.95
2024-03-12T09:07:38.435Z,152.07
2024-03-12T09:10:16.658Z,153.77
2024-03-12T09:12:43.747Z,131.20
2024-03-12T09:15:11.370Z,141.02
2024-03-12T09:17:45.502Z,136.88
2024-03-12T09:20:13.258Z,129.20
2024-03-12T09:22:41.121Z,108.72
2024-03-12T09:25:09.628Z,99.60
2024-03-12T09:27:36.888Z,104.97
2024-03-12T09:30:06.604Z,105.35
2024-03-12T09:32:34.877Z,97.45
2024-03-12T09:35:05.047Z,79.13
2024-03-12T09:37:35.194Z,77.07
2024-03-12T09:40:04.500Z,63.47
2024-03-12T09:42:33.345Z,74.47
2024-03-12T09:45:00.791Z,57.13
2024-03-12T09:47:28.045Z,55.97
2024-03-12T09:49:55.645Z,51.70
2024-03-12T09:52:22.893Z,53.13
2024-03-12T09:54:50.548Z,47.88
2024-03-12T09:57:18.951Z,37.05
2024-03-12T09:59:46.164Z,37.90
2024-03-12T10:02:16.091Z,35.70
2024-03-12T10:04:43.310Z,36.40
2024-03-12T10:07:11.463Z,27.67
2024-03-12T10:09:39.167Z,32.88
2024-03-12T10:12:10.748Z,27.30
2024-03-12T10:14:38.855Z,23.25
2024-03-12T10:17:15.674Z,26.75
2024-03-12T10:19:51.906Z,28.30
2024-03-12T10:22:23.916Z,23.65
2024-03-12T10:24:51.215Z,22.42
2024-03-12T10:27:19.312Z,24.35
2024-03-12T10:29:46.681Z,20.00
2024-03-12T10:32:22.343Z,22.33
2024-03-12T10:34:50.177Z,23.08
2024-03-12T10:37:30.976Z,21.73
2024-03-12T10:40:33.690Z,21.92
2024-03-12T10:43:03.047Z,23.70
2024-03-12T10:45:30.895Z,19.33
2024-03-12T10:47:59.732Z,25.00
2024-03-12T10:50:27.634Z,21.15
2024-03-12T10:52:56.148Z,18.95
2024-03-12T10:55:26.413Z,19.88
2024-03-12T10:57:55.474Z,15.98
2024-03-12T11:00:26.855Z,17.05
2024-03-12T11:02:57.354Z,21.73
2024-03-12T11:05:29.227Z,16.98
2024-03-12T11:07:59.342Z,16.30
2024-03-12T11:10:29.455Z,22.27
2024-03-12T11:13:00.798Z,19.05
2024-03-12T11:15:27.962Z,15.63
2024-03-12T11:17:55.047Z,20.10
2024-03-12T11:20:27.831Z,15.23
2024-03-12T11:23:01.454Z,16.95
2024-03-12T11:25:36.262Z,14.88
2024-03-12T11:28:24.087Z,15.23
2024-03-12T11:31:06.004Z,17.92
2024-03-12T11:33:40.117Z,26.30
2024-03-12T11:36:10.535Z,24.90
2024-03-12T11:38:38.580Z,30.80
2024-03-12T11:43:41.690Z,31.35
2024-03-12T11:46:22.505Z,28.83
2024-03-12T11:48:50.207Z,30.00
2024-03-12T11:53:57.150Z,34.67
2024-03-12T11:56:28.589Z,31.30
2024-03-12T11:59:03.205Z,37.20
2024-03-12T12:01:40.875Z,34.03
2024-03-12T12:04:10.102Z,41.70
2024-03-12T12:09:15.165Z,46.60
2024-03-12T12:11:42.555Z,42.00
2024-03-12T12:14:11.067Z,47.28
2024-03-12T12:16:39.026Z,46.80
2024-03-12T12:19:09.045Z,54.00
2024-03-12T12:21:37.125Z,48.80
2024-03-12T12:24:05.309Z,46.53
2024-03-12T12:26:37.395Z,49.30
2024-03-12T12:29:06.030Z,55.35
2024-03-12T12:31:37.598Z,54.22
2024-03-12T12:34:07.148Z,48.47
2024-03-12T12:36:39.779Z,57.60
2024-03-12T12:39:11.568Z,50.72
2024-03-12T12:41:47.406Z,52.42
2024-03-12T12:44:22.426Z,59.03
2024-03-12T12:46:50.494Z,53.95
2024-03-12T12:49:18.705Z,50.97
2024-03-12T12:51:47.540Z,52.83
2024-03-12T12:54:20.005Z,52.38
2024-03-12T12:56:47.942Z,51.10
2024-03-12T12:59:17.968Z,59.03
2024-03-12T13:01:49.059Z,51.47
2024-03-12T13:04:28.306Z,56.97
2024-03-12T13:06:57.332Z,58.13
2024-03-12T13:09:28.881Z,53.97
2024-03-12T13:11:57.144Z,49.97
2024-03-12T13:14:24.779Z,52.70
2024-03-12T13:16:51.899Z,57.08
2024-03-12T13:19:19.921Z,56.33
2024-03-12T13:21:47.199Z,61.13
2024-03-12T13:24:14.289Z,46.83
2024-03-12T13:26:41.332Z,58.47
2024-03-12T13:29:08.389Z,46.17
2024-03-12T13:31:36.397Z,55.40
2024-03-12T13:34:03.489Z,46.08
2024-03-12T13:36:31.051Z,60.85
2024-03-12T13:38:58.250Z,53.78
2024-03-12T13:41:26.115Z,53.75
2024-03-12T13:43:53.739Z,55.58
2024-03-12T13:46:21.308Z,49.42
2024-03-12T13:48:48.508Z,51.03
2024-03-12T13:51:15.578Z,44.38
2024-03-12T13:53:44.143Z,42.30
2024-03-12T13:56:11.481Z,45.03
2024-03-12T13:58:41.154Z,47.03
2024-03-12T14:01:12.744Z,43.28
2024-03-12T14:03:41.568Z,39.58
2024-03-12T14:06:10.774Z,41.60
2024-03-12T14:08:38.121Z,29.58
2024-03-12T14:11:05.477Z,38.00
2024-03-12T14:13:33.218Z,36.05
2024-03-12T14:16:00.772Z,28.13
2024-03-12T14:18:28.460Z,37.45
2024-03-12T14:20:56.451Z,28.30
2024-03-12T14:23:24.056Z,30.30
2024-03-12T14:25:51.283Z,33.83
2024-03-12T14:28:18.438Z,28.85
2024-03-12T14:30:48.267Z,26.60
2024-03-12T14:33:15.410Z,29.17
2024-03-12T14:35:42.561Z,27.35
2024-03-12T14:38:09.608Z,29.00
2024-03-12T14:40:36.724Z,33.95
2024-03-12T14:43:04.811Z,26.83
2024-03-12T14:45:32.609Z,37.35
2024-03-12T14:48:01.583Z,28.02
2024-03-12T14:50:28.778Z,30.63
2024-03-12T14:52:56.384Z,26.83
2024-03-12T14:55:23.659Z,31.42
2024-03-12T14:57:50.747Z,34.13
2024-03-12T15:00:18.292Z,32.58
2024-03-12T15:02:46.997Z,33.83
2024-03-12T15:05:15.718Z,32.67
2024-03-12T15:07:45.101Z,37.22
2024-03-12T15:10:13.832Z,45.83
2024-03-12T15:12:42.330Z,37.78
2024-03-12T15:15:14.410Z,40.05
2024-03-12T15:17:42.950Z,42.70
2024-03-12T15:20:17.023Z,36.85
2024-03-12T15:22:46.902Z,42.05
2024-03-12T15:25:16.287Z,39.40
2024-03-12T15:27:43.673Z,43.33
2024-03-12T15:30:17.932Z,41.95
2024-03-12T15:32:47.091Z,38.58
2024-03-12T15:35:15.563Z,40.97
2024-03-12T15:37:45.868Z,42.78
2024-03-12T15:40:15.204Z,41.00
2024-03-12T15:42:45.709Z,51.38
2024-03-12T15:45:16.313Z,47.38
2024-03-12T15:47:44.812Z,38.85
2024-03-12T15:50:13.075Z,53.45
2024-03-12T15:52:40.477Z,45.92
2024-03-12T15:55:09.462Z,46.63
2024-03-12T15:57:40.014Z,42.53
2024-03-12T16:00:09.815Z,44.70
2024-03-12T16:02:37.179Z,46.45
2024-03-12T16:05:06.440Z,40.33
2024-03-12T16:07:37.524Z,39.38
2024-03-12T16:10:06.022Z,37.20
2024-03-12T16:12:33.447Z,46.00
2024-03-12T16:15:00.747Z,44.78
2024-03-12T16:17:31.475Z,43.00
2024-03-12T16:19:58.939Z,42.22
2024-03-12T16:22:26.377Z,39.75
2024-03-12T16:24:53.585Z,43.33
2024-03-12T16:27:20.620Z,41.85
2024-03-12T16:29:48.506Z,42.25
2024-03-12T16:32:15.700Z,48.15
2024-03-12T16:34:43.241Z,48.40
2024-03-12T16:37:10.720Z,36.67
2024-03-12T16:39:40.145Z,41.90
2024-03-12T16:42:07.900Z,42.50
2024-03-12T16:44:35.880Z,45.67
2024-03-12T16:47:06.172Z,50.25
2024-03-12T16:49:34.475Z,47.28
2024-03-12T16:52:02.554Z,34.25
2024-03-12T16:54:32.052Z,49.10
2024-03-12T16:57:03.673Z,38.97
2024-03-12T17:01:58.372Z,40.45
2024-03-12T17:04:26.146Z,43.22
2024-03-12T17:07:02.874Z,37.72
2024-03-12T17:09:30.279Z,44.50
2024-03-12T17:11:57.559Z,49.63
2024-03-12T17:14:30.711Z,47.50
2024-03-12T17:17:07.330Z,39.67
2024-03-12T17:19:36.800Z,49.17
2024-03-12T17:22:07.075Z,40.35
2024-03-12T17:24:35.670Z,44.00
2024-03-12T17:27:06.921Z,47.92
2024-03-12T17:29:34.367Z,49.67
2024-03-12T17:32:01.858Z,42.00
2024-03-12T17:34:30.150Z,47.53
2024-03-12T17:37:00.590Z,46.25
2024-03-12T17:39:29.929Z,40.35
2024-03-12T17:41:57.189Z,50.25
2024-03-12T17:44:24.863Z,40.00
2024-03-12T17:46:54.999Z,44.33
2024-03-12T17:49:39.926Z,45.50
2024-03-12T17:52:09.583Z,42.15
2024-03-12T17:54:41.291Z,39.08
2024-03-12T17:57:11.628Z,41.10
2024-03-12T17:59:41.038Z,52.22
2024-03-12T18:02:13.737Z,40.25
2024-03-12T18:04:42.291Z,38.35
2024-03-12T18:07:24.201Z,36.90
2024-03-12T18:09:58.032Z,45.17
2024-03-12T18:12:25.364Z,46.83
2024-03-12T18:14:52.422Z,39.28
2024-03-12T18:17:20.092Z,38.38
2024-03-12T18:19:47.535Z,48.50
2024-03-12T18:22:15.413Z,38.28
2024-03-12T18:24:42.518Z,43.88
2024-03-12T18:27:09.706Z,48.72
2024-03-12T18:29:38.273Z,42.25
2024-03-12T18:32:07.204Z,45.25
2024-03-12T18:34:34.562Z,37.42
2024-03-12T18:37:06.248Z,42.65
2024-03-12T18:39:33.541Z,40.58
2024-03-12T18:42:00.645Z,49.45
2024-03-12T18:44:28.070Z,44.05
2024-03-12T18:46:55.885Z,43.97
2024-03-12T18:49:23.318Z,49.90
2024-03-12T18:51:52.237Z,48.90
2024-03-12T18:54:20.305Z,58.05
2024-03-12T18:56:49.748Z,44.75
2024-03-12T18:59:17.078Z,52.15
2024-03-12T19:01:49.853Z,42.67
2024-03-12T19:04:17.344Z,53.47
2024-03-12T19:06:44.783Z,46.97
2024-03-12T19:09:17.216Z,52.90
2024-03-12T19:11:44.512Z,49.10
2024-03-12T19:14:13.363Z,42.70
2024-03-12T19:16:47.050Z,42.72
2024-03-12T19:19:19.370Z,53.65
2024-03-12T19:21:46.996Z,51.55
2024-03-12T19:24:17.358Z,54.55
2024-03-12T19:26:44.705Z,41.47
2024-03-12T19:29:13.228Z,47.67
2024-03-12T19:31:40.496Z,51.33
2024-03-12T19:34:08.011Z,55.80
2024-03-12T19:36:41.461Z,48.53
2024-03-12T19:39:13.032Z,52.25
2024-03-12T19:41:45.841Z,53.78
2024-03-12T19:44:13.675Z,49.88
2024-03-12T19:46:41.470Z,48.35
2024-03-12T19:49:12.671Z,47.47
2024-03-12T19:51:40.143Z,53.08
2024-03-12T19:54:07.373Z,55.83
2024-03-12T19:56:34.516Z,56.35
2024-03-12T19:59:01.881Z,53.60
2024-03-12T20:01:29.712Z,52.10
2024-03-12T20:04:00.747Z,55.53
2024-03-12T20:06:27.961Z,57.63
2024-03-12T20:08:56.302Z,60.53
2024-03-12T20:11:23.340Z,65.55
2024-03-12T20:13:50.522Z,61.33
2024-03-12T20:16:17.689Z,58.03
2024-03-12T20:18:46.068Z,58.30
2024-03-12T20:21:13.193Z,58.55
2024-03-12T20:23:42.523Z,63.53
2024-03-12T20:26:10.853Z,67.03
2024-03-12T20:28:38.086Z,66.28
2024-03-12T20:31:07.158Z,62.13
2024-03-12T20:33:34.299Z,82.65
2024-03-12T20:36:05.874Z,68.03
2024-03-12T20:38:33.099Z,64.03
2024-03-12T20:41:00.258Z,64.68
2024-03-12T20:43:28.733Z,67.30
2024-03-12T20:45:56.071Z,77.32
2024-03-12T20:48:23.714Z,64.60
2024-03-12T20:50:50.887Z,67.13
2024-03-12T20:53:18.834Z,72.15
2024-03-12T20:55:46.041Z,86.95
2024-03-12T20:58:14.941Z,66.75
2024-03-12T21:00:42.550Z,73.05
2024-03-12T21:03:10.678Z,69.55
2024-03-12T21:05:43.204Z,77.97
2024-03-12T21:08:11.054Z,70.30
2024-03-12T21:10:40.667Z,69.63
2024-03-12T21:13:07.888Z,81.03
2024-03-12T21:15:36.114Z,79.28
2024-03-12T21:18:04.273Z,69.95
2024-03-12T21:20:34.352Z,80.47
2024-03-12T21:23:03.800Z,75.32
2024-03-12T21:25:31.014Z,67.65
2024-03-12T21:27:58.918Z,75.35
2024-03-12T21:30:26.131Z,78.95
2024-03-12T21:32:54.647Z,72.03
2024-03-12T21:35:21.956Z,81.07
2024-03-12T21:37:48.946Z,82.25
2024-03-12T21:40:17.533Z,80.80
2024-03-12T21:42:45.598Z,74.93
2024-03-12T21:45:13.534Z,81.38
2024-03-12T21:47:46.112Z,77.13
2024-03-12T21:50:15.684Z,81.93
2024-03-12T21:52:43.445Z,80.00
2024-03-12T21:55:12.160Z,86.93
2024-03-12T21:57:41.161Z,84.43
2024-03-12T22:00:12.990Z,85.00
2024-03-12T22:02:40.562Z,88.97
2024-03-12T22:05:07.702Z,81.47
2024-03-12T22:07:38.120Z,91.65
2024-03-12T22:10:09.474Z,86.38
2024-03-12T22:12:36.644Z,83.32
2024-03-12T22:15:05.505Z,82.30
2024-03-12T22:17:32.596Z,80.80
2024-03-12T22:20:00.838Z,83.18
2024-03-12T22:22:29.627Z,82.65
2024-03-12T22:24:56.782Z,82.60
2024-03-12T22:27:23.931Z,81.78
2024-03-12T22:29:56.782Z,91.80
2024-03-12T22:32:27.289Z,87.03
2024-03-12T22:34:55.732Z,80.35
2024-03-12T22:37:23.321Z,89.63
2024-03-12T22:39:50.860Z,83.28
2024-03-12T22:42:18.792Z,100.35
2024-03-12T22:44:46.244Z,91.72
2024-03-12T22:47:13.869Z,90.22
2024-03-12T22:49:44.580Z,87.95
2024-03-12T22:52:13.914Z,86.00
2024-03-12T22:54:42.012Z,83.18
2024-03-12T22:57:09.718Z,84.57
2024-03-12T22:59:38.084Z,94.20
2024-03-12T23:02:06.310Z,84.82
2024-03-12T23:04:36.279Z,93.93
2024-03-12T23:07:03.962Z,87.05
2024-03-12T23:09:31.391Z,83.13
2024-03-12T23:11:58.406Z,86.00
2024-03-12T23:14:25.486Z,80.32
2024-03-12T23:16:52.857Z,82.82
2024-03-12T23:19:20.057Z,86.25
2024-03-12T23:21:47.606Z,83.78
2024-03-12T23:24:15.064Z,91.32
2024-03-12T23:26:43.941Z,84.10
2024-03-12T23:29:11.511Z,89.85
2024-03-12T23:31:38.737Z,91.15
2024-03-12T23:34:06.920Z,89.03
2024-03-12T23:39:16.483Z,83.57
2024-03-12T23:41:43.642Z,84.07
2024-03-12T23:46:40.761Z,87.70
2024-03-12T23:49:08.040Z,82.30
2024-03-12T23:51:35.463Z,93.57
2024-03-12T23:54:02.424Z,96.47
2024-03-12T23:56:29.413Z,89.70
2024-03-12T23:58:59.649Z,83.93
